Time;durP1;ratioP1;P1;durP2;ratioP2;P2;SDS_P1;SDS_P2;PMS_P1;PMS_P2;Temp;Humidity;BMP_temperature;BMP_pressure;BME280_temperature;BME280_humidity;BME280_pressure;Samples;Min_cycle;Max_cycle;Signal;HPM_P1;HPM_P2
2022/11/12 00:24:55;;;;;;;3.38;3.08;;;;;;;;;;5951317;23;21166;-80
2022/11/12 00:27:21;;;;;;;3.53;3.22;;;;;;;;;;4996777;28;20046;-81
2022/11/12 07:51:56;;;;;;;2.88;2.50;;;;;;;;;;5962075;23;20998;-81
2022/11/12 07:54:22;;;;;;;2.92;2.30;;;;;;;;;;5001510;28;20038;-81
2022/11/12 07:56:47;;;;;;;4.47;2.55;;;;;;;;;;5010912;28;20030;-80
2022/11/12 07:59:13;;;;;;;2.72;2.53;;;;;;;;;;4977688;28;20111;-81
2022/11/12 08:01:40;;;;;;;3.00;2.30;;;;;;;;;;4978937;28;20096;-81
2022/11/12 08:04:08;;;;;;;2.92;2.67;;;;;;;;;;4991962;28;20054;-81
2022/11/12 08:06:33;;;;;;;2.80;2.60;;;;;;;;;;4981935;28;20038;-81
2022/11/12 08:09:00;;;;;;;2.60;2.40;;;;;;;;;;4984737;28;20030;-80
2022/11/12 08:11:26;;;;;;;2.13;2.03;;;;;;;;;;4994496;28;20046;-78
2022/11/12 08:13:52;;;;;;;3.72;2.53;;;;;;;;;;4997496;28;20461;-81
2022/11/12 08:16:18;;;;;;;3.03;2.72;;;;;;;;;;5016883;28;20022;-81
2022/11/12 08:18:44;;;;;;;4.03;2.78;;;;;;;;;;5017060;28;20029;-81
2022/11/12 08:21:12;;;;;;;3.00;2.70;;;;;;;;;;5017145;28;20052;-81
2022/11/12 08:23:38;;;;;;;4.28;2.80;;;;;;;;;;5017268;28;20029;-81
2022/11/12 08:26:06;;;;;;;2.67;2.47;;;;;;;;;;5016773;28;20032;-84
2022/11/12 08:28:33;;;;;;;2.80;2.60;;;;;;;;;;5016914;28;20028;-83
2022/11/12 08:31:09;;;;;;;3.30;3.00;;;;;;;;;;5016844;28;20032;-87
2022/11/12 08:33:35;;;;;;;3.60;2.80;;;;;;;;;;5016420;28;20026;-84
2022/11/12 08:36:02;;;;;;;3.05;2.75;;;;;;;;;;5016707;28;20029;-85
2022/11/12 08:38:28;;;;;;;2.75;2.55;;;;;;;;;;5016793;28;20021;-78
2022/11/12 08:40:53;;;;;;;3.30;3.00;;;;;;;;;;5016474;28;20029;-82
2022/11/12 08:43:19;;;;;;;3.67;2.83;;;;;;;;;;4999126;28;20030;-86
2022/11/12 08:45:45;;;;;;;3.13;2.83;;;;;;;;;;5016720;28;20488;-90
2022/11/12 08:48:13;;;;;;;3.85;2.70;;;;;;;;;;5016518;28;20057;-82
2022/11/12 08:50:39;;;;;;;2.72;2.20;;;;;;;;;;5016724;28;20376;-82
2022/11/12 08:53:11;;;;;;;3.45;2.17;;;;;;;;;;5016228;28;20124;-83
2022/11/12 08:55:37;;;;;;;2.85;2.30;;;;;;;;;;5016488;28;20053;-83
2022/11/12 08:58:03;;;;;;;2.70;2.50;;;;;;;;;;5016342;28;20480;-82
2022/11/12 09:00:35;;;;;;;2.83;2.63;;;;;;;;;;5007254;28;20113;-83
2022/11/12 09:03:03;;;;;;;3.13;2.60;;;;;;;;;;4986922;28;20019;-84
2022/11/12 09:05:32;;;;;;;5.63;3.15;;;;;;;;;;5006211;28;20022;-82
2022/11/12 09:08:02;;;;;;;2.60;2.40;;;;;;;;;;5004153;28;20019;-81
2022/11/12 09:10:29;;;;;;;2.67;2.47;;;;;;;;;;4996459;28;20488;-83
2022/11/12 09:12:55;;;;;;;3.28;2.97;;;;;;;;;;4996480;28;20473;-83
2022/11/12 09:15:21;;;;;;;3.45;2.85;;;;;;;;;;4996379;28;20037;-82
2022/11/12 09:17:47;;;;;;;4.28;2.70;;;;;;;;;;4978776;28;20022;-83
2022/11/12 09:20:13;;;;;;;3.60;3.30;;;;;;;;;;4978792;28;20034;-83
2022/11/12 09:22:38;;;;;;;5.78;3.13;;;;;;;;;;4995518;28;20406;-83
2022/11/12 09:25:04;;;;;;;3.30;3.00;;;;;;;;;;4995898;28;20034;-82
2022/11/12 09:27:29;;;;;;;3.97;2.58;;;;;;;;;;4996367;28;20041;-82
2022/11/12 09:29:55;;;;;;;3.90;2.60;;;;;;;;;;4996279;28;20026;-83
2022/11/12 09:32:21;;;;;;;2.72;2.30;;;;;;;;;;5000266;28;20042;-82
2022/11/12 11:29:54;;;;;;;4.22;2.40;;;;;;;;;;4925835;29;20147;-81
2022/11/12 11:32:22;;;;;;;3.20;2.40;;;;;;;;;;4916515;29;20511;-80
2022/11/12 11:34:55;;;;;;;3.03;2.70;;;;;;;;;;4917251;29;20056;-80
2022/11/12 11:37:37;;;;;;;2.83;2.63;;;;;;;;;;4935902;29;20035;-79
2022/11/12 11:40:02;;;;;;;2.80;2.60;;;;;;;;;;4934966;29;20107;-81
2022/11/12 11:42:30;;;;;;;2.50;2.30;;;;;;;;;;4936192;29;20127;-80
2022/11/12 11:45:16;;;;;;;2.60;2.40;;;;;;;;;;4935996;29;20203;-81
2022/11/12 11:47:49;;;;;;;4.45;3.05;;;;;;;;;;4938300;29;20047;-81
2022/11/12 11:50:16;;;;;;;5.93;3.72;;;;;;;;;;4940277;29;20463;-81
2022/11/12 11:53:28;;;;;;;3.28;2.70;;;;;;;;;;4940246;29;20039;-82
2022/11/12 11:55:59;;;;;;;2.83;2.08;;;;;;;;;;4939300;29;20092;-82
2022/11/12 11:58:33;;;;;;;2.80;2.28;;;;;;;;;;4940197;29;20063;-82
2022/11/12 12:01:31;;;;;;;2.50;2.30;;;;;;;;;;4939983;29;20542;-81
2022/11/12 12:04:05;;;;;;;3.65;2.63;;;;;;;;;;4905614;29;20047;-82
2022/11/12 12:06:38;;;;;;;3.00;2.40;;;;;;;;;;4939506;29;20411;-78
2022/11/12 12:09:25;;;;;;;4.32;2.40;;;;;;;;;;4939761;29;20040;-77
2022/11/12 12:12:05;;;;;;;2.45;2.25;;;;;;;;;;4939589;29;20035;-78
2022/11/12 12:14:55;;;;;;;3.70;2.88;;;;;;;;;;4939478;29;20024;-78
2022/11/12 12:17:32;;;;;;;3.90;3.00;;;;;;;;;;4939701;29;20032;-77
2022/11/12 12:20:13;;;;;;;2.75;2.33;;;;;;;;;;4939352;29;20031;-76
2022/11/12 12:22:59;;;;;;;3.15;2.50;;;;;;;;;;4939196;29;20031;-77
2022/11/12 12:25:35;;;;;;;3.83;3.03;;;;;;;;;;4939673;29;20115;-84
2022/11/12 12:28:07;;;;;;;3.10;2.80;;;;;;;;;;4941090;29;20028;-86
2022/11/12 12:30:37;;;;;;;4.53;2.70;;;;;;;;;;4941005;29;20047;-86
2022/11/12 12:33:26;;;;;;;3.38;2.50;;;;;;;;;;4944812;29;20447;-91
2022/11/12 12:35:58;;;;;;;2.97;2.42;;;;;;;;;;4951731;29;20032;-89
2022/11/12 12:38:32;;;;;;;4.40;2.60;;;;;;;;;;4954110;29;20105;-89
2022/11/12 12:41:17;;;;;;;4.13;2.60;;;;;;;;;;4950983;29;20388;-87
2022/11/12 12:43:51;;;;;;;3.30;2.70;;;;;;;;;;4974499;29;20035;-88
2022/11/12 12:46:21;;;;;;;3.60;2.40;;;;;;;;;;4961335;29;20019;-87
2022/11/12 12:48:50;;;;;;;2.65;2.45;;;;;;;;;;4975765;29;20035;-87
2022/11/12 12:51:17;;;;;;;2.63;2.40;;;;;;;;;;4976868;29;20023;-92
2022/11/12 12:53:42;;;;;;;3.15;2.50;;;;;;;;;;4958379;29;20035;-89
2022/11/12 12:56:14;;;;;;;3.05;2.40;;;;;;;;;;4961677;29;20023;-91
2022/11/12 12:58:39;;;;;;;2.80;2.60;;;;;;;;;;4940888;29;20187;-87
2022/11/12 13:01:12;;;;;;;2.53;2.33;;;;;;;;;;4958546;29;20106;-90
2022/11/12 13:04:03;;;;;;;2.55;2.17;;;;;;;;;;4941500;29;20023;-90
2022/11/12 13:06:38;;;;;;;2.22;2.03;;;;;;;;;;4957150;29;20542;-90
2022/11/12 13:09:23;;;;;;;4.43;2.10;;;;;;;;;;4958760;29;20077;-91
2022/11/12 13:14:30;;;;;;;2.15;1.95;;;;;;;;;;4957926;29;20031;-89
2022/11/12 13:16:58;;;;;;;2.08;1.90;;;;;;;;;;4957905;29;20031;-88
2022/11/12 13:19:37;;;;;;;1.80;1.70;;;;;;;;;;4958162;29;20115;-88
2022/11/12 13:22:29;;;;;;;;;;;;;;;;;;4958528;29;20477;-89
2022/11/12 13:25:06;;;;;;;2.10;1.90;;;;;;;;;;4928170;29;19982;-87
2022/11/12 13:27:44;;;;;;;1.85;1.75;;;;;;;;;;4957795;29;20027;-88
2022/11/12 13:30:12;;;;;;;1.90;1.80;;;;;;;;;;4940520;29;20383;-88
2022/11/12 13:32:47;;;;;;;2.65;2.17;;;;;;;;;;4940605;29;20023;-88
2022/11/12 13:35:15;;;;;;;2.70;2.28;;;;;;;;;;4957585;29;20023;-88
2022/11/12 13:38:19;;;;;;;2.20;2.00;;;;;;;;;;4957658;29;20114;-87
2022/11/12 13:40:48;;;;;;;2.08;1.98;;;;;;;;;;4908999;29;20394;-89
2022/11/12 13:43:14;;;;;;;2.53;1.90;;;;;;;;;;4940492;29;20031;-88
2022/11/12 13:46:14;;;;;;;1.98;1.80;;;;;;;;;;4963710;28;20042;-88
2022/11/12 13:48:51;;;;;;;1.67;1.58;;;;;;;;;;4958098;28;20039;-88
2022/11/12 13:51:37;;;;;;;3.55;2.00;;;;;;;;;;4974694;28;20038;-89
2022/11/12 13:54:24;;;;;;;2.03;1.50;;;;;;;;;;4962265;28;20054;-88
2022/11/12 13:56:50;;;;;;;2.20;1.77;;;;;;;;;;4947634;28;20070;-88
2022/11/12 13:59:21;;;;;;;2.33;2.13;;;;;;;;;;4976468;28;20069;-87
2022/11/12 14:01:48;;;;;;;3.97;2.03;;;;;;;;;;4976286;28;20031;-85
2022/11/12 14:04:15;;;;;;;2.20;1.90;;;;;;;;;;4977022;28;20027;-85
2022/11/12 14:06:44;;;;;;;2.47;1.83;;;;;;;;;;4976529;28;20027;-88
2022/11/12 14:09:40;;;;;;;2.15;1.95;;;;;;;;;;4975640;28;20030;-84
2022/11/12 14:12:32;;;;;;;2.10;1.90;;;;;;;;;;4976413;28;20093;-85
2022/11/12 14:15:03;;;;;;;2.40;1.50;;;;;;;;;;4976294;28;20060;-82
2022/11/12 14:17:37;;;;;;;2.78;1.55;;;;;;;;;;4964131;28;20386;-92
2022/11/12 14:20:18;;;;;;;2.45;1.95;;;;;;;;;;4940534;29;20027;-89
2022/11/12 14:22:44;;;;;;;1.90;1.73;;;;;;;;;;4956855;29;20027;-88
2022/11/12 14:25:17;;;;;;;1.90;1.80;;;;;;;;;;4940186;29;20031;-90
2022/11/12 18:18:20;;;;;;;22.63;20.17;;;;;;;;;;4938639;29;20129;-94
2022/11/12 18:20:46;;;;;;;14.27;12.77;;;;;;;;;;4940699;29;20122;-89
2022/11/12 18:23:13;;;;;;;11.55;9.45;;;;;;;;;;4940549;29;20028;-92
2022/11/12 18:25:38;;;;;;;10.02;8.20;;;;;;;;;;4937040;29;20023;-93
2022/11/12 18:28:05;;;;;;;7.15;6.45;;;;;;;;;;4939039;29;20046;-93
2022/11/12 18:30:31;;;;;;;6.88;5.68;;;;;;;;;;4943513;29;20028;-92
2022/11/12 18:32:56;;;;;;;5.68;4.60;;;;;;;;;;4944247;29;20533;-93
2022/11/12 18:35:22;;;;;;;6.60;5.00;;;;;;;;;;4943761;29;20032;-93
2022/11/12 18:37:47;;;;;;;4.97;4.40;;;;;;;;;;4948981;29;20031;-92
2022/11/12 18:40:13;;;;;;;4.95;4.40;;;;;;;;;;4942334;29;20059;-91
2022/11/12 18:42:38;;;;;;;3.53;3.05;;;;;;;;;;4938228;29;20024;-92
2022/11/12 18:45:04;;;;;;;5.55;3.40;;;;;;;;;;4936603;29;20027;-91
2022/11/12 18:47:37;;;;;;;4.47;3.85;;;;;;;;;;4936987;29;20115;-96
2022/11/12 18:50:04;;;;;;;4.25;3.85;;;;;;;;;;4937537;29;20032;-90
2022/11/12 18:52:29;;;;;;;4.47;3.50;;;;;;;;;;4936559;29;20038;-91
2022/11/12 18:54:55;;;;;;;4.63;3.47;;;;;;;;;;4937141;29;20032;-91
2022/11/12 18:57:21;;;;;;;4.30;3.33;;;;;;;;;;4937008;29;20034;-91
2022/11/12 18:59:46;;;;;;;3.85;3.00;;;;;;;;;;4920878;29;20115;-91
2022/11/12 19:02:14;;;;;;;4.15;3.08;;;;;;;;;;4936653;29;20444;-93
2022/11/12 19:04:39;;;;;;;4.85;3.35;;;;;;;;;;4936436;29;20431;-92
2022/11/12 19:07:05;;;;;;;4.45;3.28;;;;;;;;;;4936266;29;20027;-91
2022/11/12 19:09:31;;;;;;;5.47;3.17;;;;;;;;;;4946097;29;20031;-91
2022/11/12 19:11:56;;;;;;;3.03;2.72;;;;;;;;;;4955632;29;20097;-90
2022/11/12 19:14:23;;;;;;;3.10;2.60;;;;;;;;;;4956673;29;20122;-90
2022/11/12 19:16:48;;;;;;;5.50;2.97;;;;;;;;;;4955358;29;20038;-90
2022/11/12 19:19:14;;;;;;;3.80;3.40;;;;;;;;;;4958391;28;20047;-91
2022/11/12 19:21:40;;;;;;;3.72;3.33;;;;;;;;;;4955388;29;20538;-90
2022/11/12 19:24:06;;;;;;;3.80;3.40;;;;;;;;;;4974505;28;20701;-93
2022/11/12 19:26:31;;;;;;;4.30;3.75;;;;;;;;;;4974524;28;20026;-93
2022/11/12 19:28:57;;;;;;;3.90;3.50;;;;;;;;;;4976012;28;20031;-95
2022/11/12 19:31:25;;;;;;;4.55;4.00;;;;;;;;;;4951091;28;20027;-92
2022/11/12 19:33:51;;;;;;;5.18;3.40;;;;;;;;;;4946946;28;20058;-90
2022/11/12 19:36:22;;;;;;;8.85;4.85;;;;;;;;;;4955958;28;20023;-89
2022/11/12 19:39:01;;;;;;;5.43;4.65;;;;;;;;;;4943674;29;20031;-93
2022/11/12 19:41:26;;;;;;;8.23;5.72;;;;;;;;;;4941011;29;20062;-94
2022/11/12 19:43:52;;;;;;;8.82;6.70;;;;;;;;;;4939577;29;20054;-87
2022/11/12 19:46:18;;;;;;;9.18;7.05;;;;;;;;;;4955823;29;20039;-87
2022/11/12 19:48:44;;;;;;;9.30;6.80;;;;;;;;;;4955622;29;20034;-87
2022/11/12 19:51:10;;;;;;;10.27;6.65;;;;;;;;;;4955728;29;20489;-89
2022/11/12 19:53:45;;;;;;;7.28;6.00;;;;;;;;;;4938012;29;20046;-87
2022/11/12 19:56:13;;;;;;;8.88;5.07;;;;;;;;;;4939028;29;20546;-93
2022/11/12 19:58:42;;;;;;;5.32;4.50;;;;;;;;;;4938380;29;20066;-91
2022/11/12 20:01:10;;;;;;;6.20;5.03;;;;;;;;;;4936561;29;20088;-91
2022/11/12 20:03:36;;;;;;;7.13;4.53;;;;;;;;;;4944673;29;20024;-91
2022/11/12 20:06:05;;;;;;;7.20;4.20;;;;;;;;;;4942148;29;20027;-90
2022/11/12 20:08:31;;;;;;;3.22;2.20;;;;;;;;;;4937513;29;20028;-90
2022/11/12 20:10:56;;;;;;;2.72;2.53;;;;;;;;;;4954696;29;20035;-92
2022/11/12 20:13:22;;;;;;;2.50;2.17;;;;;;;;;;4955176;29;20475;-90
2022/11/12 20:15:48;;;;;;;2.85;2.58;;;;;;;;;;4938712;29;20035;-92
2022/11/12 20:18:14;;;;;;;2.70;2.45;;;;;;;;;;4958127;29;20053;-88
2022/11/12 20:20:40;;;;;;;4.68;2.67;;;;;;;;;;4959461;29;20035;-88
2022/11/12 20:23:05;;;;;;;3.03;2.72;;;;;;;;;;4941858;29;20114;-88
2022/11/12 20:25:31;;;;;;;3.25;2.60;;;;;;;;;;4959097;29;20351;-88
2022/11/12 20:27:56;;;;;;;3.53;2.63;;;;;;;;;;4959036;29;20027;-89
2022/11/12 20:30:22;;;;;;;2.97;2.58;;;;;;;;;;4959307;29;20027;-89
2022/11/12 20:32:48;;;;;;;3.78;2.60;;;;;;;;;;4959199;29;20027;-88
2022/11/12 20:35:13;;;;;;;4.90;3.13;;;;;;;;;;4957817;29;20463;-89
2022/11/12 20:37:38;;;;;;;4.10;2.97;;;;;;;;;;4958414;29;20038;-88
2022/11/12 20:40:04;;;;;;;2.88;2.28;;;;;;;;;;4942214;29;20109;-90
2022/11/12 20:42:30;;;;;;;3.88;2.60;;;;;;;;;;4959451;29;20032;-89
2022/11/12 20:44:55;;;;;;;3.58;2.70;;;;;;;;;;4947111;29;20027;-90
2022/11/12 20:47:21;;;;;;;3.67;2.58;;;;;;;;;;4960212;29;20033;-90
2022/11/12 20:49:46;;;;;;;3.25;2.33;;;;;;;;;;4942707;29;20023;-91
2022/11/12 20:52:11;;;;;;;3.50;2.50;;;;;;;;;;4959605;29;20382;-89
2022/11/12 20:54:37;;;;;;;3.55;2.60;;;;;;;;;;4957808;29;20445;-90
2022/11/12 20:57:02;;;;;;;3.30;2.70;;;;;;;;;;4957912;29;20091;-90
2022/11/12 20:59:28;;;;;;;4.15;3.33;;;;;;;;;;4959480;29;20059;-89
2022/11/12 21:01:56;;;;;;;6.95;5.55;;;;;;;;;;4941270;29;20070;-89
2022/11/12 21:04:22;;;;;;;5.25;4.70;;;;;;;;;;4942598;29;20066;-92
2022/11/12 21:06:48;;;;;;;8.07;5.88;;;;;;;;;;4959528;29;20023;-92
2022/11/12 21:09:13;;;;;;;5.97;5.22;;;;;;;;;;4942481;29;20467;-91
2022/11/12 21:11:39;;;;;;;5.88;4.85;;;;;;;;;;4941061;29;20038;-90
2022/11/12 21:14:04;;;;;;;6.53;5.05;;;;;;;;;;4941066;29;20055;-88
2022/11/12 21:16:30;;;;;;;7.18;4.90;;;;;;;;;;4957088;29;20549;-89
2022/11/12 21:18:59;;;;;;;6.32;4.82;;;;;;;;;;4940439;29;20483;-89
2022/11/12 21:21:24;;;;;;;5.63;4.85;;;;;;;;;;4957987;29;20046;-91
2022/11/12 21:23:52;;;;;;;6.10;4.80;;;;;;;;;;4941085;29;20091;-88
2022/11/12 21:26:19;;;;;;;4.85;4.30;;;;;;;;;;4941671;29;20106;-89
2022/11/12 21:28:50;;;;;;;4.57;3.72;;;;;;;;;;4958452;29;20066;-88
2022/11/12 21:31:19;;;;;;;3.92;3.15;;;;;;;;;;4941235;29;20039;-88
2022/11/12 21:33:50;;;;;;;3.33;2.95;;;;;;;;;;4956871;29;20028;-88
2022/11/12 21:36:16;;;;;;;4.05;3.13;;;;;;;;;;4958679;29;20027;-88
2022/11/12 21:38:43;;;;;;;3.72;3.30;;;;;;;;;;4941987;29;20031;-89
2022/11/12 21:41:11;;;;;;;4.90;3.65;;;;;;;;;;4957956;29;20058;-88
2022/11/12 21:43:42;;;;;;;3.72;3.03;;;;;;;;;;4957685;29;20038;-88
2022/11/12 21:46:30;;;;;;;3.83;3.47;;;;;;;;;;4940275;29;20156;-89
2022/11/12 21:48:56;;;;;;;3.53;2.55;;;;;;;;;;4957834;29;20030;-89
2022/11/12 21:51:23;;;;;;;3.13;2.78;;;;;;;;;;4956416;29;20058;-89
2022/11/12 21:53:59;;;;;;;4.22;2.92;;;;;;;;;;4957592;29;20034;-87
2022/11/12 21:56:25;;;;;;;3.88;2.88;;;;;;;;;;4957431;29;20035;-87
2022/11/12 21:58:52;;;;;;;4.60;2.72;;;;;;;;;;4957715;29;20086;-88
2022/11/12 22:01:24;;;;;;;3.13;2.53;;;;;;;;;;4957232;29;20031;-88
2022/11/12 22:03:52;;;;;;;5.10;2.45;;;;;;;;;;4957102;29;20026;-88
2022/11/12 22:06:19;;;;;;;3.13;2.83;;;;;;;;;;4957496;29;20035;-88
2022/11/12 22:08:44;;;;;;;2.70;2.50;;;;;;;;;;4957101;29;20031;-88
2022/11/12 22:11:14;;;;;;;2.53;2.33;;;;;;;;;;4955591;29;20030;-88
2022/11/12 22:14:18;;;;;;;3.47;2.88;;;;;;;;;;4957075;29;20031;-88
2022/11/12 22:16:43;;;;;;;3.08;2.60;;;;;;;;;;4948327;29;20479;-87
2022/11/12 22:19:11;;;;;;;4.47;3.63;;;;;;;;;;4955544;29;20083;-89
2022/11/12 22:21:37;;;;;;;2.60;2.40;;;;;;;;;;4955409;29;20141;-89
2022/11/12 22:24:02;;;;;;;3.10;2.83;;;;;;;;;;4939573;29;20503;-89
2022/11/12 22:26:28;;;;;;;3.53;2.95;;;;;;;;;;4939578;29;20031;-86
2022/11/12 22:28:56;;;;;;;4.00;2.50;;;;;;;;;;4956566;29;20394;-86
2022/11/12 22:31:27;;;;;;;3.95;2.85;;;;;;;;;;4955990;28;20031;-89
2022/11/12 22:33:53;;;;;;;4.30;2.60;;;;;;;;;;4956822;29;20019;-88
2022/11/12 22:36:21;;;;;;;3.08;2.78;;;;;;;;;;4956677;29;20032;-88
2022/11/12 22:38:48;;;;;;;3.97;3.03;;;;;;;;;;4939287;29;20392;-89
2022/11/12 22:41:16;;;;;;;3.78;2.85;;;;;;;;;;4939442;29;20023;-88
2022/11/12 22:43:47;;;;;;;4.05;2.60;;;;;;;;;;4956082;29;20043;-88
2022/11/12 22:46:14;;;;;;;3.42;3.00;;;;;;;;;;4939231;29;20035;-88
2022/11/12 22:48:40;;;;;;;3.03;2.72;;;;;;;;;;4939011;29;20053;-88
2022/11/12 22:51:09;;;;;;;3.70;3.40;;;;;;;;;;4939140;29;20466;-89
2022/11/12 22:53:35;;;;;;;4.32;3.92;;;;;;;;;;4940498;29;20027;-89
2022/11/12 22:56:02;;;;;;;5.80;5.05;;;;;;;;;;4957081;29;20026;-94
2022/11/12 22:58:28;;;;;;;4.07;3.67;;;;;;;;;;4939994;29;20121;-87
